sensor_id;sensor_type;location;lat;lon;timestamp;P1;durP1;ratioP1;P2;durP2;ratioP2
29026;SDS011;16120;48.608;9.092;2022-11-24T00:01:42;79.67;;;5.67;;
29026;SDS011;16120;48.608;9.092;2022-11-24T00:05:37;80.40;;;5.60;;
29026;SDS011;16120;48.608;9.092;2022-11-24T00:09:32;85.47;;;6.13;;
29026;SDS011;16120;48.608;9.092;2022-11-24T00:13:29;84.97;;;5.90;;
29026;SDS011;16120;48.608;9.092;2022-11-24T00:17:24;87.50;;;6.30;;
29026;SDS011;16120;48.608;9.092;2022-11-24T00:21:19;85.72;;;5.70;;
29026;SDS011;16120;48.608;9.092;2022-11-24T00:25:15;90.87;;;5.67;;
29026;SDS011;16120;48.608;9.092;2022-11-24T00:29:11;89.00;;;6.67;;
29026;SDS011;16120;48.608;9.092;2022-11-24T00:33:07;84.40;;;5.93;;
29026;SDS011;16120;48.608;9.092;2022-11-24T00:37:02;84.32;;;5.80;;
29026;SDS011;16120;48.608;9.092;2022-11-24T00:40:57;80.70;;;5.70;;
29026;SDS011;16120;48.608;9.092;2022-11-24T00:44:54;84.47;;;5.70;;
29026;SDS011;16120;48.608;9.092;2022-11-24T00:48:49;81.43;;;5.40;;
29026;SDS011;16120;48.608;9.092;2022-11-24T00:52:44;85.57;;;6.82;;
29026;SDS011;16120;48.608;9.092;2022-11-24T00:56:39;80.93;;;5.32;;
29026;SDS011;16120;48.608;9.092;2022-11-24T01:00:36;86.57;;;5.50;;
29026;SDS011;16120;48.608;9.092;2022-11-24T01:04:31;87.97;;;5.93;;
29026;SDS011;16120;48.608;9.092;2022-11-24T01:08:26;87.33;;;6.37;;
29026;SDS011;16120;48.608;9.092;2022-11-24T01:12:21;83.73;;;6.07;;
29026;SDS011;16120;48.608;9.092;2022-11-24T01:16:19;82.65;;;6.07;;
29026;SDS011;16120;48.608;9.092;2022-11-24T01:20:15;81.33;;;5.67;;
29026;SDS011;16120;48.608;9.092;2022-11-24T01:24:10;87.73;;;5.73;;
29026;SDS011;16120;48.608;9.092;2022-11-24T01:28:06;81.67;;;5.60;;
29026;SDS011;16120;48.608;9.092;2022-11-24T01:32:02;84.13;;;5.68;;
29026;SDS011;16120;48.608;9.092;2022-11-24T01:35:58;82.90;;;5.07;;
29026;SDS011;16120;48.608;9.092;2022-11-24T01:39:53;80.23;;;5.47;;
29026;SDS011;16120;48.608;9.092;2022-11-24T01:43:49;80.03;;;5.70;;
29026;SDS011;16120;48.608;9.092;2022-11-24T01:47:45;85.50;;;5.53;;
29026;SDS011;16120;48.608;9.092;2022-11-24T01:51:41;81.37;;;5.33;;
29026;SDS011;16120;48.608;9.092;2022-11-24T01:55:37;85.27;;;6.20;;
29026;SDS011;16120;48.608;9.092;2022-11-24T01:59:33;81.40;;;6.00;;
29026;SDS011;16120;48.608;9.092;2022-11-24T02:03:31;82.90;;;5.90;;
29026;SDS011;16120;48.608;9.092;2022-11-24T02:07:28;80.70;;;5.23;;
29026;SDS011;16120;48.608;9.092;2022-11-24T02:11:25;71.97;;;4.80;;
29026;SDS011;16120;48.608;9.092;2022-11-24T02:15:21;80.10;;;5.17;;
29026;SDS011;16120;48.608;9.092;2022-11-24T02:19:20;79.57;;;5.13;;
29026;SDS011;16120;48.608;9.092;2022-11-24T02:23:20;79.70;;;4.70;;
29026;SDS011;16120;48.608;9.092;2022-11-24T02:27:18;81.07;;;4.60;;
29026;SDS011;16120;48.608;9.092;2022-11-24T02:31:13;78.20;;;4.47;;
29026;SDS011;16120;48.608;9.092;2022-11-24T02:35:09;77.50;;;4.80;;
29026;SDS011;16120;48.608;9.092;2022-11-24T02:39:04;78.90;;;5.13;;
29026;SDS011;16120;48.608;9.092;2022-11-24T02:43:06;79.50;;;4.37;;
29026;SDS011;16120;48.608;9.092;2022-11-24T02:47:04;80.53;;;4.70;;
29026;SDS011;16120;48.608;9.092;2022-11-24T02:50:59;77.10;;;4.83;;
29026;SDS011;16120;48.608;9.092;2022-11-24T02:54:54;72.78;;;3.70;;
29026;SDS011;16120;48.608;9.092;2022-11-24T02:58:51;75.68;;;4.60;;
29026;SDS011;16120;48.608;9.092;2022-11-24T03:02:46;66.77;;;3.77;;
29026;SDS011;16120;48.608;9.092;2022-11-24T03:06:41;76.18;;;6.03;;
29026;SDS011;16120;48.608;9.092;2022-11-24T03:10:36;81.50;;;5.35;;
29026;SDS011;16120;48.608;9.092;2022-11-24T03:14:33;81.07;;;4.28;;
29026;SDS011;16120;48.608;9.092;2022-11-24T03:18:28;79.60;;;4.97;;
29026;SDS011;16120;48.608;9.092;2022-11-24T03:22:23;82.10;;;4.33;;
29026;SDS011;16120;48.608;9.092;2022-11-24T03:26:21;79.63;;;4.70;;
29026;SDS011;16120;48.608;9.092;2022-11-24T03:30:18;78.50;;;4.33;;
29026;SDS011;16120;48.608;9.092;2022-11-24T03:34:14;75.77;;;4.47;;
29026;SDS011;16120;48.608;9.092;2022-11-24T03:38:09;77.50;;;4.32;;
29026;SDS011;16120;48.608;9.092;2022-11-24T03:42:04;77.60;;;4.43;;
29026;SDS011;16120;48.608;9.092;2022-11-24T03:46:01;76.00;;;4.00;;
29026;SDS011;16120;48.608;9.092;2022-11-24T03:49:56;80.63;;;4.63;;
29026;SDS011;16120;48.608;9.092;2022-11-24T03:53:54;77.37;;;4.47;;
29026;SDS011;16120;48.608;9.092;2022-11-24T03:57:49;70.77;;;3.77;;
29026;SDS011;16120;48.608;9.092;2022-11-24T04:01:46;75.43;;;3.93;;
29026;SDS011;16120;48.608;9.092;2022-11-24T04:05:41;74.73;;;4.47;;
29026;SDS011;16120;48.608;9.092;2022-11-24T04:09:36;75.38;;;4.25;;
29026;SDS011;16120;48.608;9.092;2022-11-24T04:13:31;71.17;;;3.50;;
29026;SDS011;16120;48.608;9.092;2022-11-24T04:17:28;70.45;;;3.92;;
29026;SDS011;16120;48.608;9.092;2022-11-24T04:21:23;71.30;;;4.47;;
29026;SDS011;16120;48.608;9.092;2022-11-24T04:25:18;72.87;;;3.93;;
29026;SDS011;16120;48.608;9.092;2022-11-24T04:29:13;69.88;;;3.70;;
29026;SDS011;16120;48.608;9.092;2022-11-24T04:33:10;72.60;;;3.90;;
29026;SDS011;16120;48.608;9.092;2022-11-24T04:37:06;72.73;;;4.13;;
29026;SDS011;16120;48.608;9.092;2022-11-24T04:41:01;71.57;;;4.10;;
29026;SDS011;16120;48.608;9.092;2022-11-24T04:44:57;72.60;;;4.20;;
29026;SDS011;16120;48.608;9.092;2022-11-24T04:48:53;74.27;;;4.30;;
29026;SDS011;16120;48.608;9.092;2022-11-24T04:52:48;71.23;;;3.90;;
29026;SDS011;16120;48.608;9.092;2022-11-24T04:56:44;78.23;;;5.57;;
29026;SDS011;16120;48.608;9.092;2022-11-24T05:00:39;74.63;;;5.13;;
29026;SDS011;16120;48.608;9.092;2022-11-24T05:04:36;74.63;;;5.87;;
29026;SDS011;16120;48.608;9.092;2022-11-24T05:08:31;73.07;;;5.27;;
29026;SDS011;16120;48.608;9.092;2022-11-24T05:12:26;76.63;;;4.55;;
29026;SDS011;16120;48.608;9.092;2022-11-24T05:16:21;74.20;;;4.30;;
29026;SDS011;16120;48.608;9.092;2022-11-24T05:20:18;72.50;;;4.20;;
29026;SDS011;16120;48.608;9.092;2022-11-24T05:24:13;74.77;;;4.30;;
29026;SDS011;16120;48.608;9.092;2022-11-24T05:28:08;80.17;;;4.80;;
29026;SDS011;16120;48.608;9.092;2022-11-24T05:32:04;77.65;;;4.07;;
29026;SDS011;16120;48.608;9.092;2022-11-24T05:36:01;72.17;;;4.07;;
29026;SDS011;16120;48.608;9.092;2022-11-24T05:39:56;74.17;;;4.50;;
29026;SDS011;16120;48.608;9.092;2022-11-24T05:43:51;79.30;;;4.55;;
29026;SDS011;16120;48.608;9.092;2022-11-24T05:47:47;77.43;;;5.13;;
29026;SDS011;16120;48.608;9.092;2022-11-24T05:51:44;74.30;;;4.80;;
29026;SDS011;16120;48.608;9.092;2022-11-24T05:55:39;79.77;;;4.90;;
29026;SDS011;16120;48.608;9.092;2022-11-24T05:59:34;75.33;;;4.70;;
29026;SDS011;16120;48.608;9.092;2022-11-24T06:03:29;80.45;;;4.80;;
29026;SDS011;16120;48.608;9.092;2022-11-24T06:07:26;73.70;;;5.28;;
29026;SDS011;16120;48.608;9.092;2022-11-24T06:11:21;79.57;;;5.23;;
29026;SDS011;16120;48.608;9.092;2022-11-24T06:15:16;79.63;;;5.47;;
29026;SDS011;16120;48.608;9.092;2022-11-24T06:19:12;77.97;;;4.77;;
29026;SDS011;16120;48.608;9.092;2022-11-24T06:23:08;76.80;;;5.10;;
29026;SDS011;16120;48.608;9.092;2022-11-24T06:27:04;73.67;;;4.40;;
29026;SDS011;16120;48.608;9.092;2022-11-24T06:30:59;77.97;;;5.17;;
29026;SDS011;16120;48.608;9.092;2022-11-24T06:34:55;75.77;;;4.77;;
29026;SDS011;16120;48.608;9.092;2022-11-24T06:38:51;77.03;;;5.00;;
29026;SDS011;16120;48.608;9.092;2022-11-24T06:42:50;78.83;;;5.10;;
29026;SDS011;16120;48.608;9.092;2022-11-24T06:46:45;77.00;;;4.97;;
29026;SDS011;16120;48.608;9.092;2022-11-24T06:50:40;77.30;;;4.70;;
29026;SDS011;16120;48.608;9.092;2022-11-24T06:54:37;83.53;;;4.90;;
29026;SDS011;16120;48.608;9.092;2022-11-24T06:58:32;75.87;;;4.97;;
29026;SDS011;16120;48.608;9.092;2022-11-24T07:02:27;92.07;;;5.40;;
29026;SDS011;16120;48.608;9.092;2022-11-24T07:06:24;82.10;;;5.25;;
29026;SDS011;16120;48.608;9.092;2022-11-24T07:10:21;79.20;;;5.10;;
29026;SDS011;16120;48.608;9.092;2022-11-24T07:14:17;86.00;;;5.23;;
29026;SDS011;16120;48.608;9.092;2022-11-24T07:18:15;76.77;;;5.27;;
29026;SDS011;16120;48.608;9.092;2022-11-24T07:22:12;79.87;;;5.17;;
29026;SDS011;16120;48.608;9.092;2022-11-24T07:26:09;79.90;;;5.00;;
29026;SDS011;16120;48.608;9.092;2022-11-24T07:30:05;80.80;;;5.67;;
29026;SDS011;16120;48.608;9.092;2022-11-24T07:34:00;79.03;;;4.90;;
29026;SDS011;16120;48.608;9.092;2022-11-24T07:37:55;76.97;;;5.85;;
29026;SDS011;16120;48.608;9.092;2022-11-24T07:41:52;80.87;;;5.40;;
29026;SDS011;16120;48.608;9.092;2022-11-24T07:45:50;84.13;;;5.53;;
29026;SDS011;16120;48.608;9.092;2022-11-24T07:49:45;80.30;;;6.07;;
29026;SDS011;16120;48.608;9.092;2022-11-24T07:53:40;76.63;;;5.30;;
29026;SDS011;16120;48.608;9.092;2022-11-24T07:57:37;81.47;;;5.13;;
29026;SDS011;16120;48.608;9.092;2022-11-24T08:01:32;79.00;;;5.60;;
29026;SDS011;16120;48.608;9.092;2022-11-24T08:05:27;79.87;;;5.10;;
29026;SDS011;16120;48.608;9.092;2022-11-24T08:09:23;73.87;;;4.77;;
29026;SDS011;16120;48.608;9.092;2022-11-24T08:13:19;77.37;;;4.73;;
29026;SDS011;16120;48.608;9.092;2022-11-24T08:17:14;79.47;;;5.40;;
29026;SDS011;16120;48.608;9.092;2022-11-24T08:21:10;84.60;;;5.63;;
29026;SDS011;16120;48.608;9.092;2022-11-24T08:25:06;83.90;;;5.23;;
29026;SDS011;16120;48.608;9.092;2022-11-24T08:29:03;78.23;;;5.30;;
29026;SDS011;16120;48.608;9.092;2022-11-24T08:32:58;78.67;;;5.20;;
29026;SDS011;16120;48.608;9.092;2022-11-24T08:36:53;81.70;;;5.53;;
29026;SDS011;16120;48.608;9.092;2022-11-24T08:40:48;80.60;;;5.20;;
29026;SDS011;16120;48.608;9.092;2022-11-24T08:44:45;83.78;;;5.40;;
29026;SDS011;16120;48.608;9.092;2022-11-24T08:48:40;76.80;;;6.07;;
29026;SDS011;16120;48.608;9.092;2022-11-24T08:52:36;73.67;;;4.30;;
29026;SDS011;16120;48.608;9.092;2022-11-24T08:56:31;77.10;;;4.80;;
29026;SDS011;16120;48.608;9.092;2022-11-24T09:00:28;74.93;;;4.23;;
29026;SDS011;16120;48.608;9.092;2022-11-24T09:04:23;73.97;;;4.00;;
29026;SDS011;16120;48.608;9.092;2022-11-24T09:08:19;76.22;;;4.25;;
29026;SDS011;16120;48.608;9.092;2022-11-24T09:12:14;74.43;;;4.30;;
29026;SDS011;16120;48.608;9.092;2022-11-24T09:16:11;75.23;;;4.00;;
29026;SDS011;16120;48.608;9.092;2022-11-24T09:20:07;72.57;;;4.10;;
29026;SDS011;16120;48.608;9.092;2022-11-24T09:24:02;72.17;;;3.73;;
29026;SDS011;16120;48.608;9.092;2022-11-24T09:27:57;71.80;;;3.70;;
29026;SDS011;16120;48.608;9.092;2022-11-24T09:31:54;72.20;;;3.70;;
29026;SDS011;16120;48.608;9.092;2022-11-24T09:35:49;73.63;;;3.80;;
29026;SDS011;16120;48.608;9.092;2022-11-24T09:39:45;73.67;;;3.60;;
29026;SDS011;16120;48.608;9.092;2022-11-24T09:43:42;73.60;;;3.77;;
29026;SDS011;16120;48.608;9.092;2022-11-24T09:47:43;74.17;;;3.50;;
29026;SDS011;16120;48.608;9.092;2022-11-24T09:51:40;71.17;;;3.27;;
29026;SDS011;16120;48.608;9.092;2022-11-24T09:55:38;69.93;;;3.23;;
29026;SDS011;16120;48.608;9.092;2022-11-24T09:59:33;72.10;;;3.50;;
29026;SDS011;16120;48.608;9.092;2022-11-24T10:03:31;72.33;;;3.43;;
29026;SDS011;16120;48.608;9.092;2022-11-24T10:07:27;69.70;;;3.13;;
29026;SDS011;16120;48.608;9.092;2022-11-24T10:11:27;70.80;;;3.27;;
29026;SDS011;16120;48.608;9.092;2022-11-24T10:15:28;71.30;;;3.50;;
29026;SDS011;16120;48.608;9.092;2022-11-24T10:19:30;70.90;;;3.47;;
29026;SDS011;16120;48.608;9.092;2022-11-24T10:23:34;70.90;;;3.40;;
29026;SDS011;16120;48.608;9.092;2022-11-24T10:27:32;71.57;;;3.50;;
29026;SDS011;16120;48.608;9.092;2022-11-24T10:31:31;73.00;;;3.40;;
29026;SDS011;16120;48.608;9.092;2022-11-24T10:35:28;72.60;;;3.67;;
29026;SDS011;16120;48.608;9.092;2022-11-24T10:39:27;70.50;;;3.77;;
29026;SDS011;16120;48.608;9.092;2022-11-24T10:43:24;72.40;;;3.70;;
29026;SDS011;16120;48.608;9.092;2022-11-24T10:47:20;71.90;;;3.67;;
29026;SDS011;16120;48.608;9.092;2022-11-24T10:51:37;71.80;;;3.50;;
29026;SDS011;16120;48.608;9.092;2022-11-24T10:59:49;72.17;;;3.80;;
29026;SDS011;16120;48.608;9.092;2022-11-24T11:03:45;73.87;;;3.60;;
29026;SDS011;16120;48.608;9.092;2022-11-24T11:07:42;70.87;;;3.60;;
29026;SDS011;16120;48.608;9.092;2022-11-24T11:11:37;70.60;;;3.50;;
29026;SDS011;16120;48.608;9.092;2022-11-24T11:15:33;73.10;;;3.50;;
29026;SDS011;16120;48.608;9.092;2022-11-24T11:19:32;76.20;;;4.13;;
29026;SDS011;16120;48.608;9.092;2022-11-24T11:23:31;75.27;;;3.60;;
29026;SDS011;16120;48.608;9.092;2022-11-24T11:27:37;84.67;;;7.30;;
29026;SDS011;16120;48.608;9.092;2022-11-24T11:31:33;77.97;;;4.57;;
29026;SDS011;16120;48.608;9.092;2022-11-24T11:35:30;72.03;;;3.80;;
29026;SDS011;16120;48.608;9.092;2022-11-24T11:39:28;71.50;;;3.67;;
29026;SDS011;16120;48.608;9.092;2022-11-24T11:43:26;70.80;;;3.57;;
29026;SDS011;16120;48.608;9.092;2022-11-24T11:47:23;75.50;;;3.70;;
29026;SDS011;16120;48.608;9.092;2022-11-24T11:51:25;71.63;;;3.50;;
29026;SDS011;16120;48.608;9.092;2022-11-24T11:55:30;74.40;;;3.63;;
29026;SDS011;16120;48.608;9.092;2022-11-24T11:59:36;72.20;;;3.90;;
29026;SDS011;16120;48.608;9.092;2022-11-24T12:03:41;71.93;;;3.80;;
29026;SDS011;16120;48.608;9.092;2022-11-24T12:07:46;76.50;;;4.00;;
29026;SDS011;16120;48.608;9.092;2022-11-24T12:11:44;75.30;;;3.80;;
29026;SDS011;16120;48.608;9.092;2022-11-24T12:15:43;69.90;;;3.53;;
29026;SDS011;16120;48.608;9.092;2022-11-24T12:19:43;76.90;;;3.67;;
29026;SDS011;16120;48.608;9.092;2022-11-24T12:23:44;75.90;;;3.90;;
29026;SDS011;16120;48.608;9.092;2022-11-24T12:27:47;75.40;;;3.37;;
29026;SDS011;16120;48.608;9.092;2022-11-24T12:31:48;71.07;;;3.57;;
29026;SDS011;16120;48.608;9.092;2022-11-24T12:35:47;72.50;;;4.00;;
29026;SDS011;16120;48.608;9.092;2022-11-24T12:39:46;76.13;;;3.93;;
29026;SDS011;16120;48.608;9.092;2022-11-24T12:43:48;74.57;;;3.83;;
29026;SDS011;16120;48.608;9.092;2022-11-24T12:47:51;70.73;;;3.60;;
29026;SDS011;16120;48.608;9.092;2022-11-24T12:51:53;76.93;;;4.80;;
29026;SDS011;16120;48.608;9.092;2022-11-24T12:55:49;75.30;;;4.13;;
29026;SDS011;16120;48.608;9.092;2022-11-24T12:59:47;76.77;;;4.57;;
29026;SDS011;16120;48.608;9.092;2022-11-24T13:03:48;75.23;;;4.87;;
29026;SDS011;16120;48.608;9.092;2022-11-24T13:07:47;74.10;;;3.80;;
29026;SDS011;16120;48.608;9.092;2022-11-24T13:11:43;71.17;;;3.80;;
29026;SDS011;16120;48.608;9.092;2022-11-24T13:19:54;76.10;;;4.10;;
29026;SDS011;16120;48.608;9.092;2022-11-24T13:24:20;75.27;;;4.03;;
29026;SDS011;16120;48.608;9.092;2022-11-24T13:36:52;79.40;;;3.97;;
29026;SDS011;16120;48.608;9.092;2022-11-24T13:40:47;73.90;;;4.30;;
29026;SDS011;16120;48.608;9.092;2022-11-24T13:44:52;75.13;;;3.83;;
29026;SDS011;16120;48.608;9.092;2022-11-24T13:48:51;76.70;;;3.80;;
29026;SDS011;16120;48.608;9.092;2022-11-24T13:52:49;74.47;;;4.10;;
29026;SDS011;16120;48.608;9.092;2022-11-24T13:56:44;76.67;;;4.00;;
29026;SDS011;16120;48.608;9.092;2022-11-24T14:00:55;74.27;;;3.90;;
29026;SDS011;16120;48.608;9.092;2022-11-24T14:04:52;74.50;;;3.87;;
29026;SDS011;16120;48.608;9.092;2022-11-24T14:08:48;74.45;;;3.95;;
29026;SDS011;16120;48.608;9.092;2022-11-24T14:12:43;73.47;;;4.20;;
29026;SDS011;16120;48.608;9.092;2022-11-24T14:16:39;73.30;;;4.38;;
29026;SDS011;16120;48.608;9.092;2022-11-24T14:20:34;74.80;;;4.60;;
29026;SDS011;16120;48.608;9.092;2022-11-24T14:24:32;71.50;;;4.03;;
29026;SDS011;16120;48.608;9.092;2022-11-24T14:28:27;76.70;;;4.53;;
29026;SDS011;16120;48.608;9.092;2022-11-24T14:32:23;72.00;;;4.27;;
29026;SDS011;16120;48.608;9.092;2022-11-24T14:36:18;72.23;;;3.77;;
29026;SDS011;16120;48.608;9.092;2022-11-24T14:44:25;72.90;;;3.90;;
29026;SDS011;16120;48.608;9.092;2022-11-24T14:48:23;75.53;;;3.43;;
29026;SDS011;16120;48.608;9.092;2022-11-24T14:52:19;71.37;;;3.40;;
29026;SDS011;16120;48.608;9.092;2022-11-24T14:56:22;77.93;;;5.80;;
29026;SDS011;16120;48.608;9.092;2022-11-24T15:00:24;71.10;;;3.60;;
29026;SDS011;16120;48.608;9.092;2022-11-24T15:04:20;75.20;;;3.93;;
29026;SDS011;16120;48.608;9.092;2022-11-24T15:08:15;71.27;;;3.80;;
29026;SDS011;16120;48.608;9.092;2022-11-24T15:12:16;74.70;;;3.97;;
29026;SDS011;16120;48.608;9.092;2022-11-24T15:16:14;71.47;;;4.13;;
29026;SDS011;16120;48.608;9.092;2022-11-24T15:24:13;72.93;;;3.70;;
29026;SDS011;16120;48.608;9.092;2022-11-24T15:28:09;74.10;;;4.07;;
29026;SDS011;16120;48.608;9.092;2022-11-24T15:32:11;70.17;;;3.80;;
29026;SDS011;16120;48.608;9.092;2022-11-24T15:36:07;74.47;;;4.60;;
29026;SDS011;16120;48.608;9.092;2022-11-24T15:40:03;78.30;;;4.30;;
29026;SDS011;16120;48.608;9.092;2022-11-24T15:43:58;72.40;;;3.30;;
29026;SDS011;16120;48.608;9.092;2022-11-24T15:47:55;74.07;;;3.70;;
29026;SDS011;16120;48.608;9.092;2022-11-24T15:51:50;73.70;;;4.00;;
29026;SDS011;16120;48.608;9.092;2022-11-24T15:55:45;81.68;;;6.63;;
29026;SDS011;16120;48.608;9.092;2022-11-24T15:59:41;72.07;;;5.07;;
29026;SDS011;16120;48.608;9.092;2022-11-24T16:03:37;79.47;;;6.33;;
29026;SDS011;16120;48.608;9.092;2022-11-24T16:07:32;83.47;;;10.33;;
29026;SDS011;16120;48.608;9.092;2022-11-24T16:11:28;78.10;;;7.43;;
29026;SDS011;16120;48.608;9.092;2022-11-24T16:15:23;70.65;;;3.60;;
29026;SDS011;16120;48.608;9.092;2022-11-24T16:19:19;74.90;;;5.93;;
29026;SDS011;16120;48.608;9.092;2022-11-24T16:23:15;80.30;;;7.43;;
29026;SDS011;16120;48.608;9.092;2022-11-24T16:27:10;83.13;;;5.30;;
29026;SDS011;16120;48.608;9.092;2022-11-24T16:31:05;72.80;;;5.20;;
29026;SDS011;16120;48.608;9.092;2022-11-24T16:35:02;74.93;;;5.07;;
29026;SDS011;16120;48.608;9.092;2022-11-24T16:38:58;72.10;;;3.97;;
29026;SDS011;16120;48.608;9.092;2022-11-24T16:42:53;72.50;;;4.10;;
29026;SDS011;16120;48.608;9.092;2022-11-24T16:46:48;74.47;;;4.80;;
29026;SDS011;16120;48.608;9.092;2022-11-24T16:50:45;78.33;;;4.27;;
29026;SDS011;16120;48.608;9.092;2022-11-24T16:54:40;73.60;;;4.00;;
29026;SDS011;16120;48.608;9.092;2022-11-24T16:58:36;72.13;;;4.03;;
29026;SDS011;16120;48.608;9.092;2022-11-24T17:02:31;71.03;;;3.80;;
29026;SDS011;16120;48.608;9.092;2022-11-24T17:06:28;72.87;;;5.10;;
29026;SDS011;16120;48.608;9.092;2022-11-24T17:10:23;76.23;;;4.60;;
29026;SDS011;16120;48.608;9.092;2022-11-24T17:14:18;75.07;;;4.17;;
29026;SDS011;16120;48.608;9.092;2022-11-24T17:18:14;68.80;;;3.70;;
29026;SDS011;16120;48.608;9.092;2022-11-24T17:22:10;70.60;;;4.40;;
29026;SDS011;16120;48.608;9.092;2022-11-24T17:26:06;74.23;;;4.40;;
29026;SDS011;16120;48.608;9.092;2022-11-24T17:30:01;72.00;;;4.07;;
29026;SDS011;16120;48.608;9.092;2022-11-24T17:33:57;83.60;;;4.33;;
29026;SDS011;16120;48.608;9.092;2022-11-24T17:37:54;74.07;;;4.50;;
29026;SDS011;16120;48.608;9.092;2022-11-24T17:41:50;75.27;;;4.90;;
29026;SDS011;16120;48.608;9.092;2022-11-24T17:45:51;79.20;;;4.50;;
29026;SDS011;16120;48.608;9.092;2022-11-24T17:49:46;76.93;;;5.57;;
29026;SDS011;16120;48.608;9.092;2022-11-24T17:53:43;74.93;;;5.33;;
29026;SDS011;16120;48.608;9.092;2022-11-24T17:57:39;73.10;;;4.23;;
29026;SDS011;16120;48.608;9.092;2022-11-24T18:01:34;75.50;;;4.90;;
29026;SDS011;16120;48.608;9.092;2022-11-24T18:05:29;73.88;;;5.40;;
29026;SDS011;16120;48.608;9.092;2022-11-24T18:09:25;77.80;;;5.55;;
29026;SDS011;16120;48.608;9.092;2022-11-24T18:13:21;79.93;;;7.50;;
29026;SDS011;16120;48.608;9.092;2022-11-24T18:17:16;77.03;;;7.23;;
29026;SDS011;16120;48.608;9.092;2022-11-24T18:21:12;75.60;;;7.30;;
29026;SDS011;16120;48.608;9.092;2022-11-24T18:25:09;73.63;;;5.50;;
29026;SDS011;16120;48.608;9.092;2022-11-24T18:29:04;76.80;;;4.93;;
29026;SDS011;16120;48.608;9.092;2022-11-24T18:32:59;74.33;;;5.27;;
29026;SDS011;16120;48.608;9.092;2022-11-24T18:36:54;79.67;;;5.40;;
29026;SDS011;16120;48.608;9.092;2022-11-24T18:40:54;75.53;;;5.10;;
29026;SDS011;16120;48.608;9.092;2022-11-24T18:44:50;76.03;;;5.40;;
29026;SDS011;16120;48.608;9.092;2022-11-24T18:48:45;74.07;;;4.65;;
29026;SDS011;16120;48.608;9.092;2022-11-24T18:52:40;73.47;;;4.23;;
29026;SDS011;16120;48.608;9.092;2022-11-24T18:56:36;72.90;;;4.07;;
29026;SDS011;16120;48.608;9.092;2022-11-24T19:00:32;73.40;;;4.50;;
29026;SDS011;16120;48.608;9.092;2022-11-24T19:04:27;74.18;;;5.00;;
29026;SDS011;16120;48.608;9.092;2022-11-24T19:08:22;76.60;;;5.00;;
29026;SDS011;16120;48.608;9.092;2022-11-24T19:12:19;82.60;;;5.78;;
29026;SDS011;16120;48.608;9.092;2022-11-24T19:16:15;78.37;;;6.70;;
29026;SDS011;16120;48.608;9.092;2022-11-24T19:20:10;78.10;;;6.30;;
29026;SDS011;16120;48.608;9.092;2022-11-24T19:24:06;86.20;;;9.87;;
29026;SDS011;16120;48.608;9.092;2022-11-24T19:28:03;98.27;;;13.00;;
29026;SDS011;16120;48.608;9.092;2022-11-24T19:31:58;93.00;;;13.17;;
29026;SDS011;16120;48.608;9.092;2022-11-24T19:36:00;84.85;;;7.43;;
29026;SDS011;16120;48.608;9.092;2022-11-24T19:44:02;75.03;;;4.60;;
29026;SDS011;16120;48.608;9.092;2022-11-24T19:47:57;72.57;;;4.70;;
29026;SDS011;16120;48.608;9.092;2022-11-24T19:51:52;72.50;;;4.33;;
29026;SDS011;16120;48.608;9.092;2022-11-24T19:55:47;71.30;;;4.65;;
29026;SDS011;16120;48.608;9.092;2022-11-24T19:59:44;72.27;;;5.10;;
29026;SDS011;16120;48.608;9.092;2022-11-24T20:03:39;74.67;;;6.17;;
29026;SDS011;16120;48.608;9.092;2022-11-24T20:07:35;76.07;;;6.53;;
29026;SDS011;16120;48.608;9.092;2022-11-24T20:11:30;76.15;;;6.55;;
29026;SDS011;16120;48.608;9.092;2022-11-24T20:15:27;80.97;;;6.63;;
29026;SDS011;16120;48.608;9.092;2022-11-24T20:19:22;77.50;;;7.13;;
29026;SDS011;16120;48.608;9.092;2022-11-24T20:23:17;75.90;;;7.43;;
29026;SDS011;16120;48.608;9.092;2022-11-24T20:27:12;75.28;;;6.40;;
29026;SDS011;16120;48.608;9.092;2022-11-24T20:31:10;74.55;;;6.50;;
29026;SDS011;16120;48.608;9.092;2022-11-24T20:35:06;75.00;;;5.70;;
29026;SDS011;16120;48.608;9.092;2022-11-24T20:39:02;76.83;;;5.77;;
29026;SDS011;16120;48.608;9.092;2022-11-24T20:42:57;79.37;;;5.30;;
29026;SDS011;16120;48.608;9.092;2022-11-24T20:46:55;70.67;;;5.00;;
29026;SDS011;16120;48.608;9.092;2022-11-24T20:50:50;76.60;;;5.77;;
29026;SDS011;16120;48.608;9.092;2022-11-24T20:54:45;74.40;;;5.50;;
29026;SDS011;16120;48.608;9.092;2022-11-24T20:58:41;79.17;;;7.40;;
29026;SDS011;16120;48.608;9.092;2022-11-24T21:02:37;75.80;;;7.60;;
29026;SDS011;16120;48.608;9.092;2022-11-24T21:06:33;83.23;;;9.63;;
29026;SDS011;16120;48.608;9.092;2022-11-24T21:10:28;87.13;;;9.60;;
29026;SDS011;16120;48.608;9.092;2022-11-24T21:14:24;79.53;;;8.50;;
29026;SDS011;16120;48.608;9.092;2022-11-24T21:18:20;83.43;;;9.60;;
29026;SDS011;16120;48.608;9.092;2022-11-24T21:22:16;84.33;;;10.30;;
29026;SDS011;16120;48.608;9.092;2022-11-24T21:26:11;75.03;;;6.45;;
29026;SDS011;16120;48.608;9.092;2022-11-24T21:30:07;76.60;;;6.90;;
29026;SDS011;16120;48.608;9.092;2022-11-24T21:34:04;87.60;;;8.80;;
29026;SDS011;16120;48.608;9.092;2022-11-24T21:38:00;77.00;;;7.80;;
29026;SDS011;16120;48.608;9.092;2022-11-24T21:41:55;85.87;;;7.83;;
29026;SDS011;16120;48.608;9.092;2022-11-24T21:45:50;76.57;;;8.20;;
29026;SDS011;16120;48.608;9.092;2022-11-24T21:49:47;77.75;;;8.20;;
29026;SDS011;16120;48.608;9.092;2022-11-24T21:53:43;76.27;;;8.10;;
29026;SDS011;16120;48.608;9.092;2022-11-24T21:57:38;80.57;;;8.30;;
29026;SDS011;16120;48.608;9.092;2022-11-24T22:01:33;77.30;;;8.47;;
29026;SDS011;16120;48.608;9.092;2022-11-24T22:05:30;83.00;;;9.60;;
29026;SDS011;16120;48.608;9.092;2022-11-24T22:09:25;81.53;;;9.20;;
29026;SDS011;16120;48.608;9.092;2022-11-24T22:13:20;82.93;;;8.93;;
29026;SDS011;16120;48.608;9.092;2022-11-24T22:17:15;82.45;;;7.88;;
29026;SDS011;16120;48.608;9.092;2022-11-24T22:21:12;80.35;;;6.82;;
29026;SDS011;16120;48.608;9.092;2022-11-24T22:25:08;81.37;;;7.10;;
29026;SDS011;16120;48.608;9.092;2022-11-24T22:29:03;78.43;;;7.10;;
29026;SDS011;16120;48.608;9.092;2022-11-24T22:32:59;74.20;;;6.57;;
29026;SDS011;16120;48.608;9.092;2022-11-24T22:36:55;76.47;;;7.00;;
29026;SDS011;16120;48.608;9.092;2022-11-24T22:40:50;74.93;;;6.40;;
29026;SDS011;16120;48.608;9.092;2022-11-24T22:44:46;73.37;;;7.10;;
29026;SDS011;16120;48.608;9.092;2022-11-24T22:48:41;75.43;;;6.47;;
29026;SDS011;16120;48.608;9.092;2022-11-24T22:52:38;73.97;;;6.93;;
29026;SDS011;16120;48.608;9.092;2022-11-24T22:56:33;74.90;;;7.53;;
29026;SDS011;16120;48.608;9.092;2022-11-24T23:00:28;82.30;;;9.30;;
29026;SDS011;16120;48.608;9.092;2022-11-24T23:04:24;76.23;;;8.07;;
29026;SDS011;16120;48.608;9.092;2022-11-24T23:08:20;77.87;;;8.77;;
29026;SDS011;16120;48.608;9.092;2022-11-24T23:12:15;80.20;;;9.40;;
29026;SDS011;16120;48.608;9.092;2022-11-24T23:16:11;82.77;;;9.70;;
29026;SDS011;16120;48.608;9.092;2022-11-24T23:20:07;84.30;;;10.00;;
29026;SDS011;16120;48.608;9.092;2022-11-24T23:24:04;84.17;;;9.67;;
29026;SDS011;16120;48.608;9.092;2022-11-24T23:28:00;80.90;;;10.10;;
29026;SDS011;16120;48.608;9.092;2022-11-24T23:31:55;79.03;;;8.45;;
29026;SDS011;16120;48.608;9.092;2022-11-24T23:35:50;77.20;;;7.60;;
29026;SDS011;16120;48.608;9.092;2022-11-24T23:39:47;82.10;;;7.90;;
29026;SDS011;16120;48.608;9.092;2022-11-24T23:43:42;75.07;;;8.00;;
29026;SDS011;16120;48.608;9.092;2022-11-24T23:47:37;78.22;;;8.05;;
29026;SDS011;16120;48.608;9.092;2022-11-24T23:51:33;78.43;;;8.00;;